Time;durP1;ratioP1;P1;durP2;ratioP2;P2;SDS_P1;SDS_P2;PMS_P1;PMS_P2;Temp;Humidity;BMP_temperature;BMP_pressure;BME280_temperature;BME280_humidity;BME280_pressure;Samples;Min_cycle;Max_cycle;Signal;HPM_P1;HPM_P2
2021/06/23 00:01:31;;;;;;;24.77;12.50;;;16.50;91.30;;;16.39;78.32;100800.34;4991490;28;20042;-77
2021/06/23 00:03:58;;;;;;;22.05;12.35;;;16.40;90.40;;;16.38;78.67;100802.28;4991274;28;20054;-78
2021/06/23 00:06:26;;;;;;;17.52;12.10;;;16.40;90.80;;;16.41;77.83;100817.47;4991079;28;20150;-77
2021/06/23 00:08:55;;;;;;;17.58;12.20;;;16.40;90.00;;;16.42;77.54;100819.16;4991059;28;20125;-77
2021/06/23 00:11:22;;;;;;;18.77;12.02;;;16.40;89.80;;;16.40;77.15;100815.78;4989704;28;20471;-77
2021/06/23 00:13:50;;;;;;;17.65;11.77;;;16.40;90.00;;;16.35;77.76;100815.59;4991286;28;20042;-77
2021/06/23 00:16:17;;;;;;;19.42;12.90;;;16.40;90.10;;;16.36;77.56;100820.88;4989298;28;20062;-77
2021/06/23 00:18:45;;;;;;;18.52;11.23;;;16.40;89.70;;;16.35;77.52;100819.16;4990966;28;20046;-78
2021/06/23 00:21:12;;;;;;;19.10;11.43;;;16.40;89.60;;;16.37;77.44;100817.06;4990882;28;20132;-77
2021/06/23 00:23:39;;;;;;;18.42;12.10;;;16.30;89.60;;;16.36;77.57;100820.03;4990946;28;20070;-78
2021/06/23 00:26:08;;;;;;;17.67;11.88;;;16.30;89.90;;;16.34;77.66;100825.75;4990640;28;20569;-77
2021/06/23 00:28:35;;;;;;;17.15;11.57;;;16.30;90.10;;;16.33;77.14;100831.44;4991058;28;20046;-77
2021/06/23 00:31:02;;;;;;;17.42;11.48;;;16.30;89.60;;;16.30;77.62;100827.22;4990878;28;20142;-77
2021/06/23 00:33:33;;;;;;;20.30;11.60;;;16.40;90.00;;;16.31;77.69;100828.91;4989350;28;20145;-77
2021/06/23 00:36:00;;;;;;;20.93;11.40;;;16.40;89.50;;;16.35;77.13;100830.16;4990622;28;20053;-77
2021/06/23 00:38:28;;;;;;;18.08;11.27;;;16.30;89.20;;;16.34;77.31;100831.22;4990577;28;20325;-77
2021/06/23 00:40:56;;;;;;;15.50;11.05;;;16.30;90.00;;;16.32;77.24;100830.59;4989073;28;20049;-77
2021/06/23 00:43:26;;;;;;;20.58;11.35;;;16.30;90.00;;;16.30;77.33;100840.97;4990602;28;20078;-77
2021/06/23 00:45:54;;;;;;;20.85;10.63;;;16.30;89.90;;;16.30;76.90;100845.63;4990460;28;20038;-77
2021/06/23 00:48:28;;;;;;;16.63;11.27;;;16.30;89.40;;;16.28;77.31;100848.56;4989014;28;20568;-77
2021/06/23 00:51:00;;;;;;;23.20;12.57;;;16.30;89.60;;;16.30;77.25;100854.69;4988944;28;20054;-77
2021/06/23 00:54:10;;;;;;;17.80;11.75;;;16.30;89.50;;;16.30;77.26;100854.69;4948873;29;20083;-77
2021/06/23 00:56:40;;;;;;;17.25;10.93;;;16.30;90.00;;;16.29;77.33;100852.16;4948232;28;20429;-78
2021/06/23 00:59:10;;;;;;;19.05;11.73;;;16.30;90.00;;;16.29;77.40;100858.50;4960358;28;20077;-77
2021/06/23 01:01:41;;;;;;;20.05;11.65;;;16.30;89.90;;;16.31;77.09;100856.38;4988784;28;20054;-77
2021/06/23 01:04:09;;;;;;;17.92;11.13;;;16.40;89.60;;;16.29;77.34;100853.00;4990355;28;20046;-77
2021/06/23 01:06:42;;;;;;;18.48;11.43;;;16.30;90.00;;;16.30;77.00;100849.22;4988416;28;20620;-77
2021/06/23 01:09:10;;;;;;;16.48;11.10;;;16.30;89.10;;;16.31;76.84;100848.13;4988602;28;20061;-77
2021/06/23 01:11:51;;;;;;;17.45;11.05;;;16.30;89.10;;;16.26;77.32;100845.19;4989985;28;20046;-77
2021/06/23 01:14:20;;;;;;;17.02;10.40;;;16.30;90.10;;;16.29;77.00;100844.75;4990056;28;20046;-77
2021/06/23 01:16:47;;;;;;;21.52;11.65;;;16.30;89.50;;;16.26;77.02;100850.69;4988216;28;20061;-77
2021/06/23 01:19:17;;;;;;;20.63;11.77;;;16.30;89.70;;;16.28;76.87;100845.84;4989902;28;20038;-77
2021/06/23 01:21:51;;;;;;;19.73;11.88;;;16.30;89.20;;;16.26;76.99;100842.47;4988227;28;20054;-77
2021/06/23 01:24:18;;;;;;;19.98;10.82;;;16.20;89.50;;;16.28;76.99;100850.47;4985317;28;20062;-77
2021/06/23 01:26:46;;;;;;;20.95;11.65;;;16.20;89.50;;;16.29;76.89;100852.16;4988062;28;20422;-77
2021/06/23 01:29:13;;;;;;;19.17;11.23;;;16.20;89.40;;;16.26;77.02;100836.09;4989568;28;20443;-77
2021/06/23 01:32:09;;;;;;;19.85;11.77;;;16.20;89.00;;;16.23;76.90;100837.38;4988377;28;20062;-77
2021/06/23 01:34:37;;;;;;;20.70;10.57;;;16.20;89.60;;;16.25;76.77;100835.25;4988254;28;20399;-77
2021/06/23 01:37:06;;;;;;;22.15;11.07;;;16.20;89.10;;;16.23;76.48;100840.13;4989574;28;20038;-77
2021/06/23 01:39:33;;;;;;;16.88;10.38;;;16.20;89.00;;;16.19;76.33;100833.38;4989426;28;20042;-77
2021/06/23 01:42:01;;;;;;;19.30;10.90;;;16.20;88.80;;;16.19;76.62;100842.44;4988227;28;20046;-78
2021/06/23 01:44:29;;;;;;;22.17;10.77;;;16.20;89.30;;;16.21;76.71;100845.00;4987941;28;20046;-77
2021/06/23 01:46:57;;;;;;;17.83;10.13;;;16.20;89.40;;;16.19;76.79;100841.63;4987761;28;20054;-77
2021/06/23 01:49:27;;;;;;;18.33;10.52;;;16.20;89.50;;;16.16;76.93;100842.03;4987881;28;20104;-77
2021/06/23 01:51:55;;;;;;;17.70;9.70;;;16.20;89.50;;;16.17;76.45;100846.47;4988049;28;20046;-77
2021/06/23 01:54:24;;;;;;;21.45;11.30;;;16.10;88.80;;;16.18;76.50;100845.41;4987960;28;20130;-77
2021/06/23 01:56:51;;;;;;;20.67;10.45;;;16.10;89.10;;;16.16;76.52;100850.28;4987586;28;20529;-77
2021/06/23 01:59:19;;;;;;;17.60;11.15;;;16.10;89.40;;;16.16;76.45;100853.00;5041361;23;20070;-85
2021/06/23 02:02:14;;;;;;;19.23;10.27;;;16.10;89.10;;;16.15;76.43;100856.84;4969399;28;20061;-85
2021/06/23 02:04:52;;;;;;;14.82;10.02;;;16.10;88.80;;;16.16;76.36;100842.03;4984674;28;20055;-85
2021/06/23 02:08:07;;;;;;;18.25;10.38;;;16.10;89.00;;;16.18;76.00;100846.28;4967432;28;20078;-85
2021/06/23 02:10:56;;;;;;;17.00;10.25;;;16.10;88.70;;;16.13;76.20;100848.81;4970086;28;20047;-85
2021/06/23 02:14:21;;;;;;;17.75;9.65;;;16.10;89.00;;;16.14;76.08;100855.97;4969899;28;20522;-85
2021/06/23 02:16:58;;;;;;;18.33;9.82;;;16.10;88.80;;;16.13;76.13;100854.31;4984426;28;20061;-85
2021/06/23 02:19:32;;;;;;;17.95;10.15;;;16.10;88.90;;;16.13;75.96;100856.22;4984431;28;20600;-85
2021/06/23 02:22:18;;;;;;;18.90;10.50;;;16.00;88.30;;;16.13;75.64;100853.47;4968190;28;20073;-86
2021/06/23 02:24:55;;;;;;;17.52;9.88;;;16.00;88.50;;;16.13;75.68;100865.28;4969784;28;20038;-85
2021/06/23 02:27:34;;;;;;;20.02;10.13;;;16.00;88.80;;;16.11;76.01;100869.31;4968130;28;20065;-86
2021/06/23 02:30:04;;;;;;;13.23;9.50;;;16.00;89.30;;;16.10;76.22;100867.59;4968285;28;20061;-85
2021/06/23 02:32:35;;;;;;;18.77;11.30;;;16.00;89.30;;;16.06;76.55;100874.59;4968416;28;20054;-85
2021/06/23 02:35:06;;;;;;;18.70;10.35;;;16.00;89.60;;;16.04;76.68;100872.03;4969724;28;20072;-86
2021/06/23 02:37:46;;;;;;;17.67;10.68;;;16.00;89.80;;;16.02;76.81;100872.25;4968081;28;20061;-85
2021/06/23 02:40:15;;;;;;;19.30;10.38;;;16.00;89.70;;;16.06;76.30;100871.84;4984192;28;20050;-85
2021/06/23 02:42:51;;;;;;;20.27;10.02;;;16.00;88.70;;;16.06;76.15;100888.31;4968343;28;20499;-85
2021/06/23 02:45:20;;;;;;;19.75;10.50;;;16.00;88.80;;;16.06;76.08;100880.91;4969754;28;20039;-85
2021/06/23 02:47:50;;;;;;;;;;;16.00;88.90;;;16.04;76.26;100888.50;4984773;28;20054;-85
2021/06/23 02:50:35;;;;;;;18.08;10.50;;;16.00;89.20;;;16.01;76.03;100883.44;4984266;28;19933;-85
2021/06/23 02:53:16;;;;;;;20.27;9.85;;;16.00;88.90;;;16.03;75.76;100884.94;4984332;28;20054;-85
2021/06/23 02:55:44;;;;;;;20.00;9.68;;;16.00;88.60;;;15.98;76.68;100878.38;4969793;28;20708;-85
2021/06/23 02:58:14;;;;;;;23.23;11.18;;;16.00;89.80;;;15.97;76.29;100884.91;4967981;28;20050;-85
2021/06/23 03:00:43;;;;;;;20.88;9.93;;;16.00;88.70;;;15.99;76.04;100883.66;4984132;28;20061;-86
2021/06/23 03:03:11;;;;;;;18.33;10.23;;;16.00;88.60;;;15.98;76.24;100873.72;4968098;28;20403;-85
2021/06/23 03:05:38;;;;;;;19.67;10.15;;;16.00;89.00;;;16.02;75.73;100885.13;4969607;28;20448;-85
2021/06/23 03:08:08;;;;;;;19.67;10.93;;;16.00;88.40;;;16.01;75.79;100884.31;4968862;28;20043;-85
2021/06/23 03:10:45;;;;;;;21.38;10.40;;;16.00;88.50;;;16.02;75.38;100891.47;4967904;28;20058;-85
2021/06/23 03:13:52;;;;;;;22.38;11.05;;;15.90;88.20;;;16.01;75.21;100883.44;4973314;28;20055;-85
2021/06/23 03:16:26;;;;;;;24.00;10.43;;;15.90;88.40;;;15.97;75.50;100883.03;4967819;28;20058;-85
2021/06/23 03:18:54;;;;;;;21.10;10.40;;;15.90;88.80;;;15.96;75.63;100891.47;4969826;28;20134;-85
2021/06/23 03:21:22;;;;;;;19.27;9.85;;;15.90;88.40;;;15.96;75.25;100892.31;4955565;28;20067;-85
2021/06/23 03:23:51;;;;;;;20.33;9.65;;;15.90;88.10;;;15.94;75.41;100888.94;4953579;28;20142;-85
2021/06/23 03:26:24;;;;;;;20.58;10.23;;;15.90;88.50;;;15.94;75.45;100883.44;4951920;28;20693;-85
2021/06/23 03:28:56;;;;;;;18.98;10.68;;;15.90;88.20;;;15.93;75.54;100881.75;4953399;28;20097;-85
2021/06/23 03:31:25;;;;;;;17.23;9.48;;;15.90;88.40;;;15.95;75.21;100878.78;4953660;28;20043;-86
2021/06/23 03:33:54;;;;;;;16.38;9.93;;;15.80;88.10;;;15.93;75.34;100886.41;4951970;28;20062;-85
2021/06/23 03:36:45;;;;;;;18.83;9.70;;;15.80;88.40;;;15.95;75.01;100887.88;4950092;28;20059;-85
2021/06/23 03:39:13;;;;;;;20.67;10.02;;;15.80;87.90;;;15.95;74.97;100887.88;4953076;28;20051;-89
2021/06/23 03:41:52;;;;;;;18.23;10.02;;;15.80;88.10;;;15.93;75.12;100886.41;4951980;28;20063;-85
2021/06/23 03:44:21;;;;;;;18.65;10.45;;;15.80;88.10;;;15.92;74.93;100890.22;4967914;28;20051;-82
2021/06/23 03:46:48;;;;;;;23.02;10.80;;;15.80;88.00;;;15.89;75.16;100898.88;4951444;28;20078;-83
2021/06/23 03:49:16;;;;;;;22.65;10.13;;;15.80;88.50;;;15.89;75.24;100902.44;4951766;28;20054;-83
2021/06/23 03:51:43;;;;;;;28.13;10.40;;;15.80;88.70;;;15.89;75.27;100902.44;4951615;28;20047;-82
2021/06/23 03:54:10;;;;;;;21.20;10.50;;;15.80;88.30;;;15.88;74.97;100900.78;4953214;28;20047;-84
2021/06/23 03:56:44;;;;;;;19.20;10.52;;;15.80;87.90;;;15.88;74.79;100900.78;4951310;28;20593;-84
2021/06/23 03:59:12;;;;;;;16.70;9.52;;;15.80;88.10;;;15.88;74.89;100900.78;4951576;28;20059;-84
2021/06/23 04:01:42;;;;;;;27.88;11.52;;;15.80;88.00;;;15.88;74.72;100895.28;4951407;28;20051;-84
2021/06/23 04:04:14;;;;;;;22.77;11.02;;;15.80;88.00;;;15.89;74.83;100894.22;4951440;28;20062;-83
2021/06/23 04:06:51;;;;;;;21.80;10.40;;;15.80;87.70;;;15.88;74.62;100897.16;4952659;28;20043;-85
2021/06/23 04:09:20;;;;;;;20.38;10.20;;;15.80;87.90;;;15.85;74.84;100890.19;4951235;28;20526;-82
2021/06/23 04:11:54;;;;;;;19.23;10.55;;;15.80;87.80;;;15.86;74.44;100896.53;4952756;28;20042;-83
2021/06/23 04:14:21;;;;;;;26.48;10.38;;;15.70;87.50;;;15.82;74.78;100901.59;4952647;28;20106;-83
2021/06/23 04:16:55;;;;;;;22.25;9.77;;;15.70;88.10;;;15.81;74.89;100899.91;4950975;28;20396;-83
2021/06/23 04:19:23;;;;;;;19.90;10.45;;;15.80;87.90;;;15.85;74.73;100901.19;4951111;28;20142;-82
2021/06/23 04:21:56;;;;;;;23.83;11.32;;;15.80;87.60;;;15.88;74.30;100899.91;4951205;28;20078;-83
2021/06/23 04:24:24;;;;;;;24.70;10.55;;;15.70;88.00;;;15.86;74.89;100902.88;4951148;28;20578;-83
2021/06/23 04:26:51;;;;;;;19.40;10.43;;;15.80;88.40;;;15.87;74.43;100892.75;4950891;28;20062;-85
2021/06/23 04:29:20;;;;;;;19.67;10.52;;;15.80;87.90;;;15.88;74.57;100905.41;4966892;28;20059;-83
2021/06/23 04:31:50;;;;;;;19.73;9.73;;;15.80;87.90;;;15.89;74.14;100910.69;4950628;28;20114;-83
2021/06/23 04:34:20;;;;;;;21.83;10.25;;;15.70;87.50;;;15.88;74.40;100900.78;4951168;28;20078;-83
2021/06/23 04:36:52;;;;;;;19.17;10.25;;;15.70;88.00;;;15.87;74.39;100903.72;4950433;28;20175;-84
2021/06/23 04:39:19;;;;;;;24.75;10.52;;;15.70;87.90;;;15.86;74.35;100902.88;4952142;28;20137;-83
2021/06/23 04:42:03;;;;;;;21.65;10.38;;;15.80;87.50;;;15.85;74.39;100901.19;4950490;28;20134;-82
2021/06/23 04:44:30;;;;;;;20.80;10.05;;;15.80;87.70;;;15.83;74.37;100903.28;4950722;28;20051;-83
2021/06/23 04:46:57;;;;;;;19.98;10.32;;;15.80;87.30;;;15.85;74.27;100895.69;4951733;28;20074;-88
2021/06/23 04:49:28;;;;;;;19.80;10.63;;;15.70;87.30;;;15.83;74.34;100897.81;4950660;28;20062;-88
2021/06/23 04:52:11;;;;;;;22.02;10.60;;;15.80;87.20;;;15.85;74.25;100895.69;4950659;28;20062;-88
2021/06/23 04:54:39;;;;;;;15.63;9.68;;;15.80;87.20;;;15.86;74.37;100902.88;4950627;28;20062;-89
2021/06/23 04:57:08;;;;;;;20.15;10.45;;;15.80;87.60;;;15.82;75.07;100896.09;4950270;28;20126;-86
2021/06/23 04:59:36;;;;;;;15.80;9.95;;;15.80;88.10;;;15.83;74.80;100898.63;4951834;28;20070;-87
2021/06/23 05:02:04;;;;;;;22.42;10.13;;;15.80;87.50;;;15.85;74.58;100900.34;4955351;28;20131;-90
2021/06/23 05:04:34;;;;;;;20.60;10.43;;;15.80;87.60;;;15.86;74.60;100897.41;4967871;28;20105;-90
2021/06/23 05:07:05;;;;;;;20.30;10.23;;;15.80;87.30;;;15.88;74.43;100898.03;4960478;28;20039;-89
2021/06/23 05:09:32;;;;;;;23.40;10.20;;;15.80;87.40;;;15.87;74.68;100893.56;4953253;28;20654;-90
2021/06/23 05:11:59;;;;;;;20.38;10.65;;;15.80;87.70;;;15.87;74.86;100893.56;4952062;28;20443;-89
2021/06/23 05:14:27;;;;;;;22.58;10.75;;;15.80;87.90;;;15.86;74.97;100900.13;4950164;29;20426;-89
2021/06/23 05:16:54;;;;;;;17.80;9.93;;;15.80;87.90;;;15.85;75.66;100892.94;4954112;28;20518;-88
2021/06/23 05:19:24;;;;;;;20.15;10.57;;;15.90;89.10;;;15.86;75.63;100894.66;4951567;28;20055;-89
2021/06/23 05:21:53;;;;;;;18.25;10.93;;;15.90;88.40;;;15.86;75.60;100891.91;4950097;28;20094;-89
2021/06/23 05:24:21;;;;;;;21.83;11.45;;;15.90;88.40;;;15.87;75.42;100904.56;4951465;28;20050;-89
2021/06/23 05:26:48;;;;;;;23.92;10.70;;;16.00;88.20;;;15.91;75.35;100903.06;4951556;28;20667;-88
2021/06/23 05:29:16;;;;;;;17.83;9.90;;;16.00;87.80;;;15.91;75.10;100905.00;4970653;28;20050;-90
2021/06/23 05:31:43;;;;;;;26.38;10.18;;;16.00;87.60;;;15.89;75.12;100902.44;4970450;28;20119;-86
2021/06/23 05:34:10;;;;;;;20.15;10.68;;;16.00;87.50;;;15.88;75.36;100905.41;4969317;28;20085;-87
2021/06/23 05:36:37;;;;;;;17.92;10.77;;;16.00;87.70;;;15.90;75.17;100911.53;4970211;28;20507;-88
2021/06/23 05:39:06;;;;;;;15.90;10.00;;;16.00;87.00;;;15.91;74.90;100911.31;4970389;28;20125;-88
2021/06/23 05:41:35;;;;;;;21.20;10.25;;;16.00;86.80;;;15.91;74.80;100903.06;4969626;28;20105;-89
2021/06/23 05:44:13;;;;;;;22.52;10.63;;;16.00;87.00;;;15.91;74.78;100900.34;4968786;28;20058;-90
2021/06/23 05:46:52;;;;;;;16.30;10.25;;;16.10;86.90;;;15.93;74.85;100902.88;4968732;28;20054;-89
2021/06/23 05:49:20;;;;;;;22.48;10.30;;;16.10;87.10;;;15.92;75.32;100913.03;4968826;28;20046;-89
2021/06/23 05:52:03;;;;;;;22.00;10.40;;;16.10;87.50;;;15.95;74.95;100914.47;4970345;28;20399;-90
2021/06/23 05:54:38;;;;;;;24.23;10.85;;;16.10;87.00;;;15.93;74.66;100917.44;4970139;28;20053;-89
2021/06/23 06:00:20;;;;;;;21.30;10.45;;;16.10;86.50;;;15.93;74.77;100914.69;4968866;28;20046;-88
2021/06/23 06:02:50;;;;;;;21.42;10.65;;;16.10;86.70;;;15.96;74.59;100928.00;4968803;28;20061;-88
2021/06/23 06:05:24;;;;;;;20.35;10.98;;;16.20;86.40;;;15.95;74.56;100922.72;4970158;28;20053;-88
2021/06/23 06:08:02;;;;;;;27.70;10.80;;;16.10;86.10;;;15.97;74.31;100923.34;4969766;28;20042;-88
2021/06/23 06:10:33;;;;;;;20.85;10.88;;;16.10;86.00;;;15.99;74.97;100926.72;4969568;28;20066;-90
2021/06/23 06:13:01;;;;;;;21.25;10.55;;;16.10;87.00;;;15.96;75.75;100929.91;4970083;28;20046;-88
2021/06/23 06:15:28;;;;;;;20.75;11.18;;;16.10;87.50;;;15.96;74.85;100941.72;4969900;28;20652;-86
2021/06/23 06:18:00;;;;;;;24.73;10.90;;;16.10;86.60;;;15.97;74.86;100943.44;4968992;28;20542;-85
2021/06/23 06:20:27;;;;;;;22.15;10.38;;;16.20;86.40;;;15.95;74.81;100945.50;4968333;28;20054;-90
2021/06/23 06:22:55;;;;;;;22.27;10.40;;;16.20;86.00;;;15.97;74.69;100948.06;4969046;28;20031;-89
2021/06/23 06:25:22;;;;;;;22.17;10.88;;;16.20;86.10;;;16.01;74.36;100938.34;4969737;28;20043;-89
2021/06/23 06:27:51;;;;;;;19.10;10.63;;;16.20;86.30;;;16.01;74.38;100943.84;4972845;28;20039;-89
2021/06/23 06:30:21;;;;;;;23.20;10.65;;;16.20;86.50;;;16.03;74.69;100947.25;4969716;28;20054;-89
2021/06/23 06:32:49;;;;;;;23.45;11.15;;;16.20;86.70;;;16.02;74.53;100943.63;4969872;28;20133;-90
2021/06/23 06:35:16;;;;;;;23.35;10.60;;;16.20;86.20;;;16.03;74.63;100953.56;4955713;28;20043;-90
2021/06/23 06:37:43;;;;;;;18.10;10.43;;;16.30;86.20;;;16.03;74.84;100952.75;4961542;28;20122;-90
2021/06/23 06:40:12;;;;;;;27.48;10.73;;;16.30;86.40;;;16.03;74.52;100953.56;4958728;28;20051;-89
2021/06/23 06:42:39;;;;;;;21.70;11.23;;;16.30;85.90;;;16.06;74.39;100944.06;4968299;28;20118;-89
2021/06/23 06:45:09;;;;;;;18.02;10.80;;;16.30;85.90;;;16.07;74.48;100953.13;4959488;28;20070;-88
2021/06/23 06:47:37;;;;;;;20.55;11.32;;;16.40;85.70;;;16.07;74.94;100950.38;4968102;28;20051;-90
2021/06/23 06:50:05;;;;;;;22.92;10.32;;;16.40;86.30;;;16.08;74.75;100949.34;4969061;28;20052;-89
2021/06/23 06:52:33;;;;;;;25.45;10.70;;;16.40;86.00;;;16.10;74.59;100952.72;4963534;28;20436;-89
2021/06/23 06:55:00;;;;;;;17.58;10.43;;;16.40;85.30;;;16.11;74.21;100948.94;4953025;28;20094;-89
2021/06/23 06:57:27;;;;;;;16.98;10.38;;;16.40;84.70;;;16.12;73.97;100956.94;4953370;28;20102;-91
2021/06/23 06:59:55;;;;;;;21.98;10.20;;;16.40;84.80;;;16.13;73.66;100949.56;4957176;28;20054;-90
2021/06/23 07:02:24;;;;;;;19.50;10.25;;;16.40;84.50;;;16.14;73.55;100956.72;4987013;28;20050;-89
2021/06/23 07:04:52;;;;;;;20.10;10.38;;;16.50;84.20;;;16.16;73.56;100966.47;4973040;28;20054;-89
2021/06/23 07:07:19;;;;;;;20.65;10.40;;;16.50;84.40;;;16.16;73.91;100960.97;4972340;28;20053;-90
2021/06/23 07:09:47;;;;;;;21.45;10.13;;;16.50;84.90;;;16.17;74.32;100957.16;4971691;28;20129;-89
2021/06/23 07:12:14;;;;;;;23.60;11.23;;;16.50;85.10;;;16.17;74.31;100964.56;4972555;28;20403;-90
2021/06/23 07:14:42;;;;;;;18.65;10.50;;;16.60;85.00;;;16.18;74.19;100960.75;4953980;28;20647;-90
2021/06/23 07:17:09;;;;;;;19.42;10.35;;;16.70;84.60;;;16.19;74.00;100970.69;4968791;28;20049;-90
2021/06/23 07:19:38;;;;;;;20.80;10.35;;;16.70;84.20;;;16.21;73.46;100974.91;4970306;28;20047;-90
2021/06/23 07:22:05;;;;;;;19.08;10.30;;;16.70;83.10;;;16.23;73.58;100969.22;4967067;28;20400;-92
2021/06/23 07:24:33;;;;;;;28.52;10.43;;;16.70;83.80;;;16.26;73.81;100974.28;4953243;28;20047;-90
2021/06/23 07:27:00;;;;;;;21.17;9.63;;;16.80;83.60;;;16.28;73.44;100968.56;4953493;28;20451;-91
2021/06/23 07:29:28;;;;;;;19.08;9.65;;;16.80;83.30;;;16.30;74.03;100963.72;4953177;28;20055;-83
2021/06/23 07:31:59;;;;;;;21.80;9.20;;;16.90;83.70;;;16.33;73.81;100968.78;4970255;28;20046;-82
2021/06/23 07:36:31;;;;;;;;;;;17.00;83.20;;;16.36;74.25;100969.22;4972824;28;20427;-83
2021/06/23 07:37:24;;;;;;;21.52;10.15;;;17.10;83.50;;;16.38;74.07;100972.59;4952968;28;20456;-89
2021/06/23 07:39:53;;;;;;;25.88;9.63;;;17.10;82.90;;;16.40;73.31;100975.97;4953135;28;20768;-84
2021/06/23 07:42:20;;;;;;;19.05;8.95;;;17.20;81.90;;;16.43;73.21;100974.72;4958964;28;20488;-86
2021/06/23 07:44:52;;;;;;;21.73;9.90;;;17.20;81.70;;;16.43;73.91;100969.22;4967997;28;20087;-86
2021/06/23 07:47:22;;;;;;;;;;;17.30;82.80;;;16.46;73.29;100965.19;4953352;28;20055;-88
2021/06/23 07:49:50;;;;;;;22.52;9.38;;;17.30;81.10;;;16.49;73.41;100967.53;4964919;28;19926;-87
2021/06/23 07:52:24;;;;;;;19.10;9.55;;;17.40;81.40;;;16.51;73.48;100970.91;4970105;28;20109;-87
2021/06/23 07:55:40;;;;;;;17.60;9.07;;;17.40;81.70;;;16.53;73.77;100972.38;4972450;28;20423;-88
2021/06/23 08:09:13;;;;;;;18.13;8.88;;;18.00;79.20;;;16.77;72.79;100973.63;4980834;28;20370;-82
2021/06/23 08:11:45;;;;;;;16.63;9.30;;;18.10;79.20;;;16.81;72.76;100966.63;4990640;28;20128;-83
2021/06/23 08:14:12;;;;;;;24.92;9.32;;;18.10;79.20;;;16.86;73.36;100981.66;4989681;28;20050;-85
2021/06/23 08:16:39;;;;;;;21.88;9.63;;;18.20;78.70;;;16.89;72.24;100976.56;4991051;28;20061;-83
2021/06/23 08:19:07;;;;;;;20.02;9.38;;;18.30;77.30;;;16.94;71.72;100965.75;4989308;28;20158;-82
2021/06/23 08:21:34;;;;;;;19.95;9.50;;;18.30;77.70;;;16.98;71.89;100978.03;4990600;28;20072;-83
2021/06/23 08:24:02;;;;;;;19.48;9.35;;;18.40;77.40;;;17.00;70.70;100975.91;4991290;28;20516;-84
2021/06/23 08:26:29;;;;;;;18.25;9.38;;;18.40;75.80;;;17.03;70.09;100977.38;4979619;28;20050;-85
2021/06/23 08:28:58;;;;;;;18.15;9.70;;;18.40;76.10;;;17.06;70.80;100974.19;4971676;28;20042;-88
2021/06/23 08:31:25;;;;;;;18.10;9.07;;;18.40;76.40;;;17.10;71.07;100967.22;4987894;28;20591;-88
2021/06/23 08:33:53;;;;;;;21.48;9.40;;;18.50;76.70;;;17.12;70.89;100972.50;4989584;28;20058;-82
2021/06/23 08:36:21;;;;;;;16.85;8.93;;;18.50;76.50;;;17.15;70.37;100981.16;4974348;28;20042;-79
2021/06/23 08:38:48;;;;;;;17.88;8.95;;;18.50;75.20;;;17.18;70.75;100968.88;4976663;28;20515;-80
2021/06/23 08:41:16;;;;;;;17.95;9.25;;;18.60;76.40;;;17.20;71.12;100972.25;5000447;28;20057;-77
2021/06/23 08:43:43;;;;;;;19.38;9.10;;;18.70;76.40;;;17.24;71.28;100969.91;4994289;28;20418;-78
2021/06/23 08:46:12;;;;;;;16.60;9.02;;;18.70;77.00;;;17.28;71.02;100971.16;4990458;28;20069;-78
2021/06/23 08:48:41;;;;;;;16.90;8.77;;;18.70;75.60;;;17.31;70.80;100974.31;4990753;28;20748;-78
2021/06/23 08:51:10;;;;;;;23.30;10.15;;;18.80;75.70;;;17.33;70.32;100976.84;4990525;28;20116;-78
2021/06/23 08:53:37;;;;;;;18.60;9.75;;;18.70;74.90;;;17.33;69.42;100974.94;4987026;28;20093;-78
2021/06/23 08:56:07;;;;;;;15.88;9.30;;;18.70;73.90;;;17.34;69.47;100976.66;5003036;28;20050;-78
2021/06/23 08:58:34;;;;;;;17.33;9.85;;;18.60;75.10;;;17.35;68.99;100978.31;4995477;28;20049;-78
2021/06/23 09:01:01;;;;;;;19.00;9.40;;;18.60;74.50;;;17.36;69.45;100979.16;4989300;28;20585;-78
2021/06/23 09:03:30;;;;;;;15.40;8.93;;;18.60;75.70;;;17.36;69.89;100982.78;4988488;28;20132;-78
2021/06/23 09:05:59;;;;;;;21.17;8.93;;;18.60;75.60;;;17.37;69.19;100978.94;4990014;28;20046;-78
2021/06/23 09:08:33;;;;;;;13.98;8.25;;;18.60;75.30;;;17.37;68.97;100978.09;4988554;28;20046;-78
2021/06/23 09:11:03;;;;;;;18.75;8.38;;;18.60;74.80;;;17.38;68.74;100977.03;4990248;28;20061;-79
2021/06/23 09:13:31;;;;;;;19.65;8.98;;;18.50;74.70;;;17.38;69.30;100982.53;4990153;28;20070;-78
2021/06/23 09:16:00;;;;;;;29.30;9.00;;;18.50;75.60;;;17.41;69.19;100982.09;4989085;28;20077;-78
2021/06/23 09:18:34;;;;;;;18.30;7.97;;;18.50;75.50;;;17.39;69.20;100981.47;4985494;28;20507;-78
2021/06/23 09:21:05;;;;;;;17.10;8.20;;;18.50;75.40;;;17.38;68.78;100983.41;4970742;28;20141;-78
2021/06/23 09:23:48;;;;;;;22.38;8.70;;;18.40;75.40;;;17.38;69.17;100985.28;4976894;28;20573;-79
2021/06/23 09:26:20;;;;;;;19.38;8.52;;;18.40;75.70;;;17.37;68.87;100973.44;4984834;28;20439;-78
2021/06/23 09:29:07;;;;;;;17.27;8.63;;;18.40;75.70;;;17.38;68.89;100988.03;4982407;28;20038;-79
2021/06/23 09:31:57;;;;;;;15.93;8.27;;;18.40;75.40;;;17.39;68.47;100984.22;4980307;28;20050;-80
2021/06/23 09:34:28;;;;;;;19.23;8.35;;;18.40;75.40;;;17.38;68.80;100980.66;4987639;28;20045;-79
2021/06/23 09:36:56;;;;;;;15.75;8.13;;;18.40;75.60;;;17.38;68.61;100988.91;4989524;28;20042;-80
2021/06/23 09:39:25;;;;;;;17.23;7.90;;;18.40;75.60;;;17.38;69.18;100994.41;4989731;28;20577;-79
2021/06/23 09:41:54;;;;;;;18.67;8.32;;;18.50;76.50;;;17.40;69.38;100985.91;4989539;28;20038;-79
2021/06/23 09:44:23;;;;;;;20.73;8.57;;;18.50;76.50;;;17.41;69.50;100992.28;5004356;28;20427;-79
2021/06/23 09:46:51;;;;;;;18.63;8.73;;;18.50;76.10;;;17.42;68.57;100985.69;4989228;28;20050;-80
2021/06/23 09:49:21;;;;;;;19.52;8.35;;;18.50;74.80;;;17.41;68.80;100993.09;4989545;28;20049;-79
2021/06/23 09:51:53;;;;;;;16.38;8.18;;;18.40;75.30;;;17.41;68.28;100982.09;4987796;28;20096;-79
2021/06/23 09:54:23;;;;;;;16.50;8.07;;;18.40;75.10;;;17.42;68.09;100989.31;4985798;28;20050;-79
2021/06/23 09:56:51;;;;;;;19.83;8.47;;;18.50;75.10;;;17.44;68.20;100987.19;4969973;28;20362;-79
2021/06/23 09:59:33;;;;;;;19.33;9.13;;;18.50;74.90;;;17.44;67.79;100981.69;4970215;28;20582;-79
2021/06/23 10:02:00;;;;;;;27.90;9.93;;;18.50;74.10;;;17.45;67.15;100988.84;4979109;28;20046;-79
2021/06/23 10:04:36;;;;;;;24.23;8.48;;;18.50;73.00;;;17.47;67.05;100985.88;4984048;28;20066;-79
2021/06/23 10:07:05;;;;;;;15.13;7.70;;;18.50;74.10;;;17.48;67.70;100987.59;4969734;28;20049;-83
2021/06/23 10:09:34;;;;;;;18.38;9.05;;;18.60;74.70;;;17.48;68.32;100988.44;4969988;28;20092;-79
2021/06/23 10:12:05;;;;;;;19.85;8.55;;;18.60;74.80;;;17.50;68.26;100990.97;4969907;28;20093;-79
2021/06/23 10:14:39;;;;;;;22.73;8.85;;;18.60;74.00;;;17.49;68.07;100987.34;4984534;28;20073;-78
2021/06/23 10:17:08;;;;;;;19.15;8.30;;;18.70;74.90;;;17.50;68.04;100986.31;4969585;28;20046;-79
2021/06/23 10:19:36;;;;;;;20.42;8.32;;;18.60;74.60;;;17.52;68.35;100989.69;4973417;28;20155;-80
2021/06/23 10:22:07;;;;;;;19.40;8.93;;;18.70;75.10;;;17.54;68.65;100993.06;4969698;28;20047;-80
2021/06/23 10:24:36;;;;;;;16.60;7.68;;;18.70;75.30;;;17.56;68.46;100992.84;4969626;28;20043;-81
2021/06/23 10:27:10;;;;;;;21.60;8.60;;;18.80;74.80;;;17.57;67.96;100989.00;4969506;28;20075;-79
2021/06/23 10:29:38;;;;;;;18.65;8.55;;;18.80;73.90;;;17.59;68.12;100986.88;4972858;28;20055;-80
2021/06/23 10:32:10;;;;;;;28.67;10.00;;;18.80;74.30;;;17.59;68.14;100985.00;4980893;28;20038;-80
2021/06/23 10:34:38;;;;;;;16.55;8.30;;;18.80;74.20;;;17.63;67.55;100987.28;4993379;28;20046;-80